Terminal Aerodrome Forecast
Issued by NWS

Home | Current Version | Previous Version | Text Only | Print | Product List | Glossary On
Versions: 1 2 3 4 5 6 7 8 9 10 11 12 13 14 15 16 17 18 19 20 21
000
FTUS43 KGRB 222300
TAFCWA
TAF
KCWA 222320Z 2300/2324 27005KT P6SM SKC
     FM230800 VRB02KT 5SM BR SKC
      TEMPO 2309/2313 1 1/2SM BR
     FM231400 20007KT P6SM FEW050
      AMD LTD TO CLD VIS AND WIND 2303/2311=

USA.gov is the U.S. government's official web portal to all federal, state and local government web resources and services.